sensor_id;sensor_type;location;lat;lon;timestamp;temperature;humidity
10433;DHT22;5263;48.680;9.004;2022-11-20T00:01:46;4.00;99.90
10433;DHT22;5263;48.680;9.004;2022-11-20T00:04:12;3.80;99.90
10433;DHT22;5263;48.680;9.004;2022-11-20T00:06:38;3.90;99.90
10433;DHT22;5263;48.680;9.004;2022-11-20T00:09:03;3.90;99.90
10433;DHT22;5263;48.680;9.004;2022-11-20T00:11:31;3.90;99.90
10433;DHT22;5263;48.680;9.004;2022-11-20T00:13:59;3.90;99.90
10433;DHT22;5263;48.680;9.004;2022-11-20T00:16:27;3.80;99.90
10433;DHT22;5263;48.680;9.004;2022-11-20T00:18:53;4.00;99.90
10433;DHT22;5263;48.680;9.004;2022-11-20T00:21:23;4.00;99.90
10433;DHT22;5263;48.680;9.004;2022-11-20T00:23:51;3.90;99.90
10433;DHT22;5263;48.680;9.004;2022-11-20T00:26:18;3.90;99.90
10433;DHT22;5263;48.680;9.004;2022-11-20T00:28:52;4.00;99.90
10433;DHT22;5263;48.680;9.004;2022-11-20T00:31:18;4.00;99.90
10433;DHT22;5263;48.680;9.004;2022-11-20T00:33:45;4.20;99.90
10433;DHT22;5263;48.680;9.004;2022-11-20T00:36:14;4.10;99.90
10433;DHT22;5263;48.680;9.004;2022-11-20T00:38:40;4.10;99.90
10433;DHT22;5263;48.680;9.004;2022-11-20T00:41:08;4.20;99.90
10433;DHT22;5263;48.680;9.004;2022-11-20T00:43:34;4.30;99.90
10433;DHT22;5263;48.680;9.004;2022-11-20T00:46:08;4.20;99.90
10433;DHT22;5263;48.680;9.004;2022-11-20T00:48:34;4.10;99.90
10433;DHT22;5263;48.680;9.004;2022-11-20T00:51:00;4.10;99.90
10433;DHT22;5263;48.680;9.004;2022-11-20T00:53:26;4.10;99.90
10433;DHT22;5263;48.680;9.004;2022-11-20T00:56:05;4.10;99.90
10433;DHT22;5263;48.680;9.004;2022-11-20T00:58:33;4.10;99.90
10433;DHT22;5263;48.680;9.004;2022-11-20T01:01:03;4.10;99.90
10433;DHT22;5263;48.680;9.004;2022-11-20T01:03:34;4.20;99.90
10433;DHT22;5263;48.680;9.004;2022-11-20T01:06:14;4.10;99.90
10433;DHT22;5263;48.680;9.004;2022-11-20T01:08:40;4.10;99.90
10433;DHT22;5263;48.680;9.004;2022-11-20T01:11:10;4.10;99.90
10433;DHT22;5263;48.680;9.004;2022-11-20T01:13:37;4.10;99.90
10433;DHT22;5263;48.680;9.004;2022-11-20T01:16:11;4.00;99.90
10433;DHT22;5263;48.680;9.004;2022-11-20T01:18:39;4.00;99.90
10433;DHT22;5263;48.680;9.004;2022-11-20T01:21:08;3.80;99.90
10433;DHT22;5263;48.680;9.004;2022-11-20T01:23:36;3.70;99.90
10433;DHT22;5263;48.680;9.004;2022-11-20T01:26:04;3.70;99.90
10433;DHT22;5263;48.680;9.004;2022-11-20T01:28:30;3.60;99.90
10433;DHT22;5263;48.680;9.004;2022-11-20T01:30:57;3.60;99.90
10433;DHT22;5263;48.680;9.004;2022-11-20T01:33:22;3.50;99.90
10433;DHT22;5263;48.680;9.004;2022-11-20T01:35:48;3.60;99.90
10433;DHT22;5263;48.680;9.004;2022-11-20T01:38:15;3.60;99.90
10433;DHT22;5263;48.680;9.004;2022-11-20T01:40:41;3.50;99.90
10433;DHT22;5263;48.680;9.004;2022-11-20T01:43:25;3.60;99.90
10433;DHT22;5263;48.680;9.004;2022-11-20T01:46:18;3.40;99.90
10433;DHT22;5263;48.680;9.004;2022-11-20T01:48:57;3.20;99.90
10433;DHT22;5263;48.680;9.004;2022-11-20T01:51:47;3.10;99.90
10433;DHT22;5263;48.680;9.004;2022-11-20T01:54:18;3.00;99.90
10433;DHT22;5263;48.680;9.004;2022-11-20T01:56:46;3.30;99.90
10433;DHT22;5263;48.680;9.004;2022-11-20T01:59:16;3.20;99.90
10433;DHT22;5263;48.680;9.004;2022-11-20T02:01:43;3.40;99.90
10433;DHT22;5263;48.680;9.004;2022-11-20T02:04:09;3.40;99.90
10433;DHT22;5263;48.680;9.004;2022-11-20T02:06:57;3.30;99.90
10433;DHT22;5263;48.680;9.004;2022-11-20T02:09:24;3.30;99.90
10433;DHT22;5263;48.680;9.004;2022-11-20T02:11:50;3.40;99.90
10433;DHT22;5263;48.680;9.004;2022-11-20T02:14:16;3.30;99.90
10433;DHT22;5263;48.680;9.004;2022-11-20T02:16:45;3.40;99.90
10433;DHT22;5263;48.680;9.004;2022-11-20T02:19:28;3.30;99.90
10433;DHT22;5263;48.680;9.004;2022-11-20T02:22:23;3.30;99.90
10433;DHT22;5263;48.680;9.004;2022-11-20T02:24:51;3.30;99.90
10433;DHT22;5263;48.680;9.004;2022-11-20T02:27:17;3.50;99.90
10433;DHT22;5263;48.680;9.004;2022-11-20T02:29:54;3.50;99.90
10433;DHT22;5263;48.680;9.004;2022-11-20T02:32:24;3.60;99.90
10433;DHT22;5263;48.680;9.004;2022-11-20T02:34:50;3.60;99.90
10433;DHT22;5263;48.680;9.004;2022-11-20T02:37:17;3.70;99.90
10433;DHT22;5263;48.680;9.004;2022-11-20T02:39:45;3.70;99.90
10433;DHT22;5263;48.680;9.004;2022-11-20T02:42:11;3.70;99.90
10433;DHT22;5263;48.680;9.004;2022-11-20T02:44:37;3.80;99.90
10433;DHT22;5263;48.680;9.004;2022-11-20T02:47:03;3.80;99.90
10433;DHT22;5263;48.680;9.004;2022-11-20T02:49:28;3.90;99.90
10433;DHT22;5263;48.680;9.004;2022-11-20T02:51:54;3.90;99.90
10433;DHT22;5263;48.680;9.004;2022-11-20T02:54:19;3.80;99.90
10433;DHT22;5263;48.680;9.004;2022-11-20T02:56:45;3.80;99.90
10433;DHT22;5263;48.680;9.004;2022-11-20T02:59:10;3.80;99.90
10433;DHT22;5263;48.680;9.004;2022-11-20T03:01:36;3.80;99.90
10433;DHT22;5263;48.680;9.004;2022-11-20T03:04:02;3.80;99.90
10433;DHT22;5263;48.680;9.004;2022-11-20T03:06:28;3.70;99.90
10433;DHT22;5263;48.680;9.004;2022-11-20T03:08:54;3.70;99.90
10433;DHT22;5263;48.680;9.004;2022-11-20T03:11:20;3.60;99.90
10433;DHT22;5263;48.680;9.004;2022-11-20T03:13:46;3.60;99.90
10433;DHT22;5263;48.680;9.004;2022-11-20T03:16:16;3.40;99.90
10433;DHT22;5263;48.680;9.004;2022-11-20T03:18:43;3.40;99.90
10433;DHT22;5263;48.680;9.004;2022-11-20T03:21:10;3.20;99.90
10433;DHT22;5263;48.680;9.004;2022-11-20T03:23:37;3.10;99.90
10433;DHT22;5263;48.680;9.004;2022-11-20T03:26:22;3.10;99.90
10433;DHT22;5263;48.680;9.004;2022-11-20T03:28:59;3.10;99.90
10433;DHT22;5263;48.680;9.004;2022-11-20T03:31:28;3.00;99.90
10433;DHT22;5263;48.680;9.004;2022-11-20T03:33:55;2.90;99.90
10433;DHT22;5263;48.680;9.004;2022-11-20T03:36:21;3.00;99.90
10433;DHT22;5263;48.680;9.004;2022-11-20T03:38:47;2.80;99.90
10433;DHT22;5263;48.680;9.004;2022-11-20T03:41:22;2.90;99.90
10433;DHT22;5263;48.680;9.004;2022-11-20T03:43:52;2.80;99.90
10433;DHT22;5263;48.680;9.004;2022-11-20T03:46:19;3.00;99.90
10433;DHT22;5263;48.680;9.004;2022-11-20T03:48:45;3.00;99.90
10433;DHT22;5263;48.680;9.004;2022-11-20T03:51:29;2.90;99.90
10433;DHT22;5263;48.680;9.004;2022-11-20T03:53:57;2.80;99.90
10433;DHT22;5263;48.680;9.004;2022-11-20T03:56:31;2.80;99.90
10433;DHT22;5263;48.680;9.004;2022-11-20T03:58:57;2.80;99.90
10433;DHT22;5263;48.680;9.004;2022-11-20T04:01:32;2.80;99.90
10433;DHT22;5263;48.680;9.004;2022-11-20T04:03:58;2.80;99.90
10433;DHT22;5263;48.680;9.004;2022-11-20T04:06:30;2.90;99.90
10433;DHT22;5263;48.680;9.004;2022-11-20T04:08:57;3.00;99.90
10433;DHT22;5263;48.680;9.004;2022-11-20T04:11:25;3.10;99.90
10433;DHT22;5263;48.680;9.004;2022-11-20T04:13:52;3.20;99.90
10433;DHT22;5263;48.680;9.004;2022-11-20T04:16:19;3.30;99.90
10433;DHT22;5263;48.680;9.004;2022-11-20T04:18:45;3.40;99.90
10433;DHT22;5263;48.680;9.004;2022-11-20T04:21:11;3.40;99.90
10433;DHT22;5263;48.680;9.004;2022-11-20T04:23:37;3.30;99.90
10433;DHT22;5263;48.680;9.004;2022-11-20T04:26:11;3.40;99.90
10433;DHT22;5263;48.680;9.004;2022-11-20T04:28:37;3.40;99.90
10433;DHT22;5263;48.680;9.004;2022-11-20T04:31:08;3.40;99.90
10433;DHT22;5263;48.680;9.004;2022-11-20T04:33:35;3.40;99.90
10433;DHT22;5263;48.680;9.004;2022-11-20T04:36:18;3.50;99.90
10433;DHT22;5263;48.680;9.004;2022-11-20T04:38:45;3.60;99.90
10433;DHT22;5263;48.680;9.004;2022-11-20T04:41:18;3.80;99.90
10433;DHT22;5263;48.680;9.004;2022-11-20T04:43:48;3.80;99.90
10433;DHT22;5263;48.680;9.004;2022-11-20T04:46:14;3.80;99.90
10433;DHT22;5263;48.680;9.004;2022-11-20T04:48:40;3.80;99.90
10433;DHT22;5263;48.680;9.004;2022-11-20T04:51:05;3.80;99.90
10433;DHT22;5263;48.680;9.004;2022-11-20T04:53:31;3.90;99.90
10433;DHT22;5263;48.680;9.004;2022-11-20T04:56:06;3.90;99.90
10433;DHT22;5263;48.680;9.004;2022-11-20T04:58:32;3.90;99.90
10433;DHT22;5263;48.680;9.004;2022-11-20T05:01:06;3.80;99.90
10433;DHT22;5263;48.680;9.004;2022-11-20T05:03:32;3.80;99.90
10433;DHT22;5263;48.680;9.004;2022-11-20T05:06:05;3.90;99.90
10433;DHT22;5263;48.680;9.004;2022-11-20T05:08:31;3.90;99.90
10433;DHT22;5263;48.680;9.004;2022-11-20T05:11:26;3.90;99.90
10433;DHT22;5263;48.680;9.004;2022-11-20T05:13:54;3.90;99.90
10433;DHT22;5263;48.680;9.004;2022-11-20T05:16:22;3.90;99.90
10433;DHT22;5263;48.680;9.004;2022-11-20T05:18:49;4.00;99.90
10433;DHT22;5263;48.680;9.004;2022-11-20T05:21:15;4.10;99.90
10433;DHT22;5263;48.680;9.004;2022-11-20T05:23:41;3.90;99.90
10433;DHT22;5263;48.680;9.004;2022-11-20T05:26:12;4.00;99.90
10433;DHT22;5263;48.680;9.004;2022-11-20T05:28:38;4.00;99.90
10433;DHT22;5263;48.680;9.004;2022-11-20T05:31:05;4.10;99.90
10433;DHT22;5263;48.680;9.004;2022-11-20T05:33:32;4.10;99.90
10433;DHT22;5263;48.680;9.004;2022-11-20T05:36:02;4.20;99.90
10433;DHT22;5263;48.680;9.004;2022-11-20T05:38:27;4.10;99.90
10433;DHT22;5263;48.680;9.004;2022-11-20T05:40:53;4.10;99.90
10433;DHT22;5263;48.680;9.004;2022-11-20T05:43:18;4.10;99.90
10433;DHT22;5263;48.680;9.004;2022-11-20T05:45:54;4.10;99.90
10433;DHT22;5263;48.680;9.004;2022-11-20T05:48:20;4.00;99.90
10433;DHT22;5263;48.680;9.004;2022-11-20T05:50:47;4.10;99.90
10433;DHT22;5263;48.680;9.004;2022-11-20T05:53:13;4.10;99.90
10433;DHT22;5263;48.680;9.004;2022-11-20T05:55:38;4.10;99.90
10433;DHT22;5263;48.680;9.004;2022-11-20T05:58:04;4.10;99.90
10433;DHT22;5263;48.680;9.004;2022-11-20T06:00:29;4.10;99.90
10433;DHT22;5263;48.680;9.004;2022-11-20T06:02:55;4.20;99.90
10433;DHT22;5263;48.680;9.004;2022-11-20T06:05:21;4.20;99.90
10433;DHT22;5263;48.680;9.004;2022-11-20T06:07:46;4.20;99.90
10433;DHT22;5263;48.680;9.004;2022-11-20T06:10:12;4.20;99.90
10433;DHT22;5263;48.680;9.004;2022-11-20T06:12:37;4.20;99.90
10433;DHT22;5263;48.680;9.004;2022-11-20T06:15:04;4.10;99.90
10433;DHT22;5263;48.680;9.004;2022-11-20T06:17:30;4.20;99.90
10433;DHT22;5263;48.680;9.004;2022-11-20T06:19:56;4.20;99.90
10433;DHT22;5263;48.680;9.004;2022-11-20T06:22:21;4.20;99.90
10433;DHT22;5263;48.680;9.004;2022-11-20T06:24:47;4.30;99.90
10433;DHT22;5263;48.680;9.004;2022-11-20T06:27:13;4.20;99.90
10433;DHT22;5263;48.680;9.004;2022-11-20T06:29:38;4.30;99.90
10433;DHT22;5263;48.680;9.004;2022-11-20T06:32:04;4.20;99.90
10433;DHT22;5263;48.680;9.004;2022-11-20T06:34:29;4.30;99.90
10433;DHT22;5263;48.680;9.004;2022-11-20T06:36:55;4.30;99.90
10433;DHT22;5263;48.680;9.004;2022-11-20T06:39:21;4.30;99.90
10433;DHT22;5263;48.680;9.004;2022-11-20T06:41:46;4.30;99.90
10433;DHT22;5263;48.680;9.004;2022-11-20T06:44:12;4.20;99.90
10433;DHT22;5263;48.680;9.004;2022-11-20T06:46:37;4.30;99.90
10433;DHT22;5263;48.680;9.004;2022-11-20T06:49:03;4.30;99.90
10433;DHT22;5263;48.680;9.004;2022-11-20T06:51:28;4.40;99.90
10433;DHT22;5263;48.680;9.004;2022-11-20T06:53:54;4.50;99.90
10433;DHT22;5263;48.680;9.004;2022-11-20T06:56:20;4.40;99.90
10433;DHT22;5263;48.680;9.004;2022-11-20T06:58:45;4.50;99.90
10433;DHT22;5263;48.680;9.004;2022-11-20T07:01:13;4.70;99.90
10433;DHT22;5263;48.680;9.004;2022-11-20T07:03:40;4.60;99.90
10433;DHT22;5263;48.680;9.004;2022-11-20T07:06:06;4.60;99.90
10433;DHT22;5263;48.680;9.004;2022-11-20T07:08:32;4.60;99.90
10433;DHT22;5263;48.680;9.004;2022-11-20T07:11:03;4.70;99.90
10433;DHT22;5263;48.680;9.004;2022-11-20T07:13:29;4.70;99.90
10433;DHT22;5263;48.680;9.004;2022-11-20T07:15:58;4.80;99.90
10433;DHT22;5263;48.680;9.004;2022-11-20T07:18:24;4.70;99.90
10433;DHT22;5263;48.680;9.004;2022-11-20T07:20:49;4.80;99.90
10433;DHT22;5263;48.680;9.004;2022-11-20T07:23:15;4.80;99.90
10433;DHT22;5263;48.680;9.004;2022-11-20T07:25:41;4.80;99.90
10433;DHT22;5263;48.680;9.004;2022-11-20T07:28:06;4.70;99.90
10433;DHT22;5263;48.680;9.004;2022-11-20T07:30:32;4.70;99.90
10433;DHT22;5263;48.680;9.004;2022-11-20T07:32:58;4.70;99.90
10433;DHT22;5263;48.680;9.004;2022-11-20T07:35:24;4.80;99.90
10433;DHT22;5263;48.680;9.004;2022-11-20T07:37:50;4.90;99.90
10433;DHT22;5263;48.680;9.004;2022-11-20T07:40:16;4.90;99.90
10433;DHT22;5263;48.680;9.004;2022-11-20T07:42:49;5.00;99.90
10433;DHT22;5263;48.680;9.004;2022-11-20T07:45:16;4.90;99.90
10433;DHT22;5263;48.680;9.004;2022-11-20T07:47:42;4.90;99.90
10433;DHT22;5263;48.680;9.004;2022-11-20T07:50:08;5.00;99.90
10433;DHT22;5263;48.680;9.004;2022-11-20T07:52:33;5.10;99.90
10433;DHT22;5263;48.680;9.004;2022-11-20T07:54:59;5.10;99.90
10433;DHT22;5263;48.680;9.004;2022-11-20T07:57:24;5.20;99.90
10433;DHT22;5263;48.680;9.004;2022-11-20T07:59:50;5.20;99.90
10433;DHT22;5263;48.680;9.004;2022-11-20T08:02:15;5.30;99.90
10433;DHT22;5263;48.680;9.004;2022-11-20T08:04:41;5.30;99.90
10433;DHT22;5263;48.680;9.004;2022-11-20T08:07:06;5.30;99.90
10433;DHT22;5263;48.680;9.004;2022-11-20T08:09:32;5.30;99.90
10433;DHT22;5263;48.680;9.004;2022-11-20T08:11:58;5.40;99.90
10433;DHT22;5263;48.680;9.004;2022-11-20T08:14:41;5.30;99.90
10433;DHT22;5263;48.680;9.004;2022-11-20T08:17:07;5.40;99.90
10433;DHT22;5263;48.680;9.004;2022-11-20T08:19:33;5.50;99.90
10433;DHT22;5263;48.680;9.004;2022-11-20T08:21:58;5.50;99.90
10433;DHT22;5263;48.680;9.004;2022-11-20T08:24:24;5.40;99.90
10433;DHT22;5263;48.680;9.004;2022-11-20T08:26:52;5.40;99.90
10433;DHT22;5263;48.680;9.004;2022-11-20T08:29:18;5.40;99.90
10433;DHT22;5263;48.680;9.004;2022-11-20T08:31:43;5.40;99.90
10433;DHT22;5263;48.680;9.004;2022-11-20T08:34:09;5.40;99.90
10433;DHT22;5263;48.680;9.004;2022-11-20T08:36:36;5.50;99.90
10433;DHT22;5263;48.680;9.004;2022-11-20T08:39:02;5.40;99.90
10433;DHT22;5263;48.680;9.004;2022-11-20T08:41:29;5.40;99.90
10433;DHT22;5263;48.680;9.004;2022-11-20T08:44:02;5.50;99.90
10433;DHT22;5263;48.680;9.004;2022-11-20T08:46:36;5.70;99.90
10433;DHT22;5263;48.680;9.004;2022-11-20T08:49:07;5.60;99.90
10433;DHT22;5263;48.680;9.004;2022-11-20T08:51:33;5.70;99.90
10433;DHT22;5263;48.680;9.004;2022-11-20T08:53:59;5.70;99.90
10433;DHT22;5263;48.680;9.004;2022-11-20T08:56:24;5.70;99.90
10433;DHT22;5263;48.680;9.004;2022-11-20T08:58:51;5.60;99.90
10433;DHT22;5263;48.680;9.004;2022-11-20T09:01:20;5.70;99.90
10433;DHT22;5263;48.680;9.004;2022-11-20T09:03:47;5.90;99.90
10433;DHT22;5263;48.680;9.004;2022-11-20T09:06:13;5.90;99.90
10433;DHT22;5263;48.680;9.004;2022-11-20T09:08:39;5.90;99.90
10433;DHT22;5263;48.680;9.004;2022-11-20T09:11:05;5.90;99.90
10433;DHT22;5263;48.680;9.004;2022-11-20T09:13:31;5.80;99.90
10433;DHT22;5263;48.680;9.004;2022-11-20T09:16:06;5.90;99.90
10433;DHT22;5263;48.680;9.004;2022-11-20T09:18:33;6.00;99.90
10433;DHT22;5263;48.680;9.004;2022-11-20T09:21:03;5.90;99.90
10433;DHT22;5263;48.680;9.004;2022-11-20T09:23:34;5.90;99.90
10433;DHT22;5263;48.680;9.004;2022-11-20T09:26:18;5.90;99.90
10433;DHT22;5263;48.680;9.004;2022-11-20T09:28:44;5.90;99.90
10433;DHT22;5263;48.680;9.004;2022-11-20T09:31:24;5.80;99.90
10433;DHT22;5263;48.680;9.004;2022-11-20T09:33:52;5.80;99.90
10433;DHT22;5263;48.680;9.004;2022-11-20T09:36:18;5.80;99.90
10433;DHT22;5263;48.680;9.004;2022-11-20T09:38:47;5.70;99.90
10433;DHT22;5263;48.680;9.004;2022-11-20T09:41:36;5.90;99.90
10433;DHT22;5263;48.680;9.004;2022-11-20T09:47:11;5.70;99.90
10433;DHT22;5263;48.680;9.004;2022-11-20T09:55:12;5.60;99.90
10433;DHT22;5263;48.680;9.004;2022-11-20T09:57:45;5.50;99.90
10433;DHT22;5263;48.680;9.004;2022-11-20T10:00:14;5.50;99.90
10433;DHT22;5263;48.680;9.004;2022-11-20T10:03:00;5.60;99.90
10433;DHT22;5263;48.680;9.004;2022-11-20T10:05:50;5.60;99.90
10433;DHT22;5263;48.680;9.004;2022-11-20T10:08:18;5.70;99.90
10433;DHT22;5263;48.680;9.004;2022-11-20T10:10:49;5.70;99.90
10433;DHT22;5263;48.680;9.004;2022-11-20T10:13:40;5.70;99.90
10433;DHT22;5263;48.680;9.004;2022-11-20T10:16:20;5.60;99.90
10433;DHT22;5263;48.680;9.004;2022-11-20T10:24:41;5.70;99.90
10433;DHT22;5263;48.680;9.004;2022-11-20T10:29:49;5.50;99.90
10433;DHT22;5263;48.680;9.004;2022-11-20T10:32:34;5.50;99.90
10433;DHT22;5263;48.680;9.004;2022-11-20T10:35:14;5.60;99.90
10433;DHT22;5263;48.680;9.004;2022-11-20T10:37:44;5.60;99.90
10433;DHT22;5263;48.680;9.004;2022-11-20T10:40:27;5.70;99.90
10433;DHT22;5263;48.680;9.004;2022-11-20T10:42:57;5.70;99.90
10433;DHT22;5263;48.680;9.004;2022-11-20T10:56:46;5.80;99.90
10433;DHT22;5263;48.680;9.004;2022-11-20T11:01:56;6.00;99.90
10433;DHT22;5263;48.680;9.004;2022-11-20T11:04:43;6.20;99.90
10433;DHT22;5263;48.680;9.004;2022-11-20T11:07:25;6.30;99.90
10433;DHT22;5263;48.680;9.004;2022-11-20T11:09:54;6.40;99.90
10433;DHT22;5263;48.680;9.004;2022-11-20T11:12:29;6.30;99.90
10433;DHT22;5263;48.680;9.004;2022-11-20T11:14:56;6.30;99.90
10433;DHT22;5263;48.680;9.004;2022-11-20T11:17:33;6.50;99.90
10433;DHT22;5263;48.680;9.004;2022-11-20T11:22:29;6.60;99.90
10433;DHT22;5263;48.680;9.004;2022-11-20T11:24:56;6.80;99.90
10433;DHT22;5263;48.680;9.004;2022-11-20T11:27:21;7.00;99.90
10433;DHT22;5263;48.680;9.004;2022-11-20T11:29:47;7.00;99.90
10433;DHT22;5263;48.680;9.004;2022-11-20T11:32:19;7.10;99.90
10433;DHT22;5263;48.680;9.004;2022-11-20T11:35:02;9.20;99.90
10433;DHT22;5263;48.680;9.004;2022-11-20T11:37:34;12.70;99.90
10433;DHT22;5263;48.680;9.004;2022-11-20T11:40:01;13.70;99.90
10433;DHT22;5263;48.680;9.004;2022-11-20T11:42:28;13.50;99.90
10433;DHT22;5263;48.680;9.004;2022-11-20T11:44:56;15.10;99.90
10433;DHT22;5263;48.680;9.004;2022-11-20T11:53:12;13.00;99.90
10433;DHT22;5263;48.680;9.004;2022-11-20T12:00:54;11.40;99.90
10433;DHT22;5263;48.680;9.004;2022-11-20T12:03:29;13.00;99.90
10433;DHT22;5263;48.680;9.004;2022-11-20T12:06:01;14.20;99.90
10433;DHT22;5263;48.680;9.004;2022-11-20T12:08:48;13.70;99.90
10433;DHT22;5263;48.680;9.004;2022-11-20T12:11:17;14.60;99.90
10433;DHT22;5263;48.680;9.004;2022-11-20T12:16:37;15.20;99.90
10433;DHT22;5263;48.680;9.004;2022-11-20T12:19:11;12.20;99.90
10433;DHT22;5263;48.680;9.004;2022-11-20T12:21:57;10.60;99.90
10433;DHT22;5263;48.680;9.004;2022-11-20T12:35:18;9.40;99.90
10433;DHT22;5263;48.680;9.004;2022-11-20T12:37:49;9.10;99.90
10433;DHT22;5263;48.680;9.004;2022-11-20T12:40:49;8.30;99.90
10433;DHT22;5263;48.680;9.004;2022-11-20T12:43:21;8.70;99.90
10433;DHT22;5263;48.680;9.004;2022-11-20T12:48:41;9.30;99.90
10433;DHT22;5263;48.680;9.004;2022-11-20T12:59:52;13.30;99.90
10433;DHT22;5263;48.680;9.004;2022-11-20T13:07:26;14.50;99.90
10433;DHT22;5263;48.680;9.004;2022-11-20T13:09:52;13.70;99.90
10433;DHT22;5263;48.680;9.004;2022-11-20T13:12:28;12.00;99.90
10433;DHT22;5263;48.680;9.004;2022-11-20T13:20:19;10.10;99.90
10433;DHT22;5263;48.680;9.004;2022-11-20T13:22:47;9.70;99.90
10433;DHT22;5263;48.680;9.004;2022-11-20T13:27:54;8.70;99.90
10433;DHT22;5263;48.680;9.004;2022-11-20T13:30:21;8.50;99.90
10433;DHT22;5263;48.680;9.004;2022-11-20T13:32:56;8.30;99.90
10433;DHT22;5263;48.680;9.004;2022-11-20T13:35:34;8.10;99.90
10433;DHT22;5263;48.680;9.004;2022-11-20T13:38:06;7.90;99.90
10433;DHT22;5263;48.680;9.004;2022-11-20T13:40:32;7.90;99.90
10433;DHT22;5263;48.680;9.004;2022-11-20T13:43:10;7.60;99.90
10433;DHT22;5263;48.680;9.004;2022-11-20T13:45:39;7.40;99.90
10433;DHT22;5263;48.680;9.004;2022-11-20T13:48:19;7.40;99.90
10433;DHT22;5263;48.680;9.004;2022-11-20T14:01:23;7.00;99.90
10433;DHT22;5263;48.680;9.004;2022-11-20T14:03:50;6.60;99.90
10433;DHT22;5263;48.680;9.004;2022-11-20T14:06:30;6.60;99.90
10433;DHT22;5263;48.680;9.004;2022-11-20T14:08:57;6.50;99.90
10433;DHT22;5263;48.680;9.004;2022-11-20T14:11:25;6.40;99.90
10433;DHT22;5263;48.680;9.004;2022-11-20T14:16:24;6.30;99.90
10433;DHT22;5263;48.680;9.004;2022-11-20T14:18:50;6.50;99.90
10433;DHT22;5263;48.680;9.004;2022-11-20T14:21:27;6.30;99.90
10433;DHT22;5263;48.680;9.004;2022-11-20T14:24:07;6.40;99.90
10433;DHT22;5263;48.680;9.004;2022-11-20T14:26:42;6.50;99.90
10433;DHT22;5263;48.680;9.004;2022-11-20T14:29:18;6.60;99.90
10433;DHT22;5263;48.680;9.004;2022-11-20T14:31:45;6.50;99.90
10433;DHT22;5263;48.680;9.004;2022-11-20T14:34:20;6.30;99.90
10433;DHT22;5263;48.680;9.004;2022-11-20T14:36:46;6.20;99.90
10433;DHT22;5263;48.680;9.004;2022-11-20T14:39:20;6.30;99.90
10433;DHT22;5263;48.680;9.004;2022-11-20T14:41:53;6.20;99.90
10433;DHT22;5263;48.680;9.004;2022-11-20T14:44:26;6.30;99.90
10433;DHT22;5263;48.680;9.004;2022-11-20T14:46:52;6.30;99.90
10433;DHT22;5263;48.680;9.004;2022-11-20T14:49:19;6.20;99.90
10433;DHT22;5263;48.680;9.004;2022-11-20T14:51:46;6.50;99.90
10433;DHT22;5263;48.680;9.004;2022-11-20T14:56:41;6.40;99.90
10433;DHT22;5263;48.680;9.004;2022-11-20T14:59:08;6.50;99.90
10433;DHT22;5263;48.680;9.004;2022-11-20T15:01:34;6.30;99.90
10433;DHT22;5263;48.680;9.004;2022-11-20T15:04:11;6.30;99.90
10433;DHT22;5263;48.680;9.004;2022-11-20T15:06:37;6.20;99.90
10433;DHT22;5263;48.680;9.004;2022-11-20T15:09:04;6.00;99.90
10433;DHT22;5263;48.680;9.004;2022-11-20T15:11:33;6.00;99.90
10433;DHT22;5263;48.680;9.004;2022-11-20T15:14:05;5.80;99.90
10433;DHT22;5263;48.680;9.004;2022-11-20T15:16:32;5.80;99.90
10433;DHT22;5263;48.680;9.004;2022-11-20T15:18:58;5.70;99.90
10433;DHT22;5263;48.680;9.004;2022-11-20T15:21:24;5.70;99.90
10433;DHT22;5263;48.680;9.004;2022-11-20T15:23:50;5.60;99.90
10433;DHT22;5263;48.680;9.004;2022-11-20T15:26:23;5.40;99.90
10433;DHT22;5263;48.680;9.004;2022-11-20T15:28:50;5.50;99.90
10433;DHT22;5263;48.680;9.004;2022-11-20T15:31:17;5.50;99.90
10433;DHT22;5263;48.680;9.004;2022-11-20T15:33:43;5.40;99.90
10433;DHT22;5263;48.680;9.004;2022-11-20T15:36:09;5.40;99.90
10433;DHT22;5263;48.680;9.004;2022-11-20T15:38:36;5.40;99.90
10433;DHT22;5263;48.680;9.004;2022-11-20T15:41:01;5.50;99.90
10433;DHT22;5263;48.680;9.004;2022-11-20T15:43:27;5.20;99.90
10433;DHT22;5263;48.680;9.004;2022-11-20T15:46:00;5.30;99.90
10433;DHT22;5263;48.680;9.004;2022-11-20T15:48:29;5.30;99.90
10433;DHT22;5263;48.680;9.004;2022-11-20T15:50:57;5.20;99.90
10433;DHT22;5263;48.680;9.004;2022-11-20T15:53:23;5.20;99.90
10433;DHT22;5263;48.680;9.004;2022-11-20T15:55:49;5.20;99.90
10433;DHT22;5263;48.680;9.004;2022-11-20T15:58:16;5.10;99.90
10433;DHT22;5263;48.680;9.004;2022-11-20T16:00:42;5.10;99.90
10433;DHT22;5263;48.680;9.004;2022-11-20T16:03:12;5.10;99.90
10433;DHT22;5263;48.680;9.004;2022-11-20T16:05:38;5.10;99.90
10433;DHT22;5263;48.680;9.004;2022-11-20T16:08:04;5.20;99.90
10433;DHT22;5263;48.680;9.004;2022-11-20T16:10:30;5.40;99.90
10433;DHT22;5263;48.680;9.004;2022-11-20T16:12:56;5.30;99.90
10433;DHT22;5263;48.680;9.004;2022-11-20T16:15:40;5.30;99.90
10433;DHT22;5263;48.680;9.004;2022-11-20T16:18:13;5.40;99.90
10433;DHT22;5263;48.680;9.004;2022-11-20T16:20:39;5.40;99.90
10433;DHT22;5263;48.680;9.004;2022-11-20T16:23:06;5.50;99.90
10433;DHT22;5263;48.680;9.004;2022-11-20T16:25:32;5.40;99.90
10433;DHT22;5263;48.680;9.004;2022-11-20T16:27:58;5.30;99.90
10433;DHT22;5263;48.680;9.004;2022-11-20T16:30:23;5.30;99.90
10433;DHT22;5263;48.680;9.004;2022-11-20T16:32:49;5.20;99.90
10433;DHT22;5263;48.680;9.004;2022-11-20T16:35:15;5.20;99.90
10433;DHT22;5263;48.680;9.004;2022-11-20T16:37:40;5.50;99.90
10433;DHT22;5263;48.680;9.004;2022-11-20T16:40:07;5.40;99.90
10433;DHT22;5263;48.680;9.004;2022-11-20T16:42:34;5.50;99.90
10433;DHT22;5263;48.680;9.004;2022-11-20T16:45:00;5.50;99.90
10433;DHT22;5263;48.680;9.004;2022-11-20T16:47:25;5.60;99.90
10433;DHT22;5263;48.680;9.004;2022-11-20T16:49:51;5.60;99.90
10433;DHT22;5263;48.680;9.004;2022-11-20T16:52:17;5.60;99.90
10433;DHT22;5263;48.680;9.004;2022-11-20T16:54:42;5.50;99.90
10433;DHT22;5263;48.680;9.004;2022-11-20T16:57:08;5.60;99.90
10433;DHT22;5263;48.680;9.004;2022-11-20T16:59:33;5.60;99.90
10433;DHT22;5263;48.680;9.004;2022-11-20T17:01:59;5.50;99.90
10433;DHT22;5263;48.680;9.004;2022-11-20T17:04:24;5.50;99.90
10433;DHT22;5263;48.680;9.004;2022-11-20T17:06:50;5.50;99.90
10433;DHT22;5263;48.680;9.004;2022-11-20T17:09:16;5.50;99.90
10433;DHT22;5263;48.680;9.004;2022-11-20T17:11:42;5.50;99.90
10433;DHT22;5263;48.680;9.004;2022-11-20T17:14:12;5.40;99.90
10433;DHT22;5263;48.680;9.004;2022-11-20T17:16:38;5.50;99.90
10433;DHT22;5263;48.680;9.004;2022-11-20T17:19:04;5.50;99.90
10433;DHT22;5263;48.680;9.004;2022-11-20T17:21:31;5.50;99.90
10433;DHT22;5263;48.680;9.004;2022-11-20T17:24:01;5.50;99.90
10433;DHT22;5263;48.680;9.004;2022-11-20T17:26:27;5.50;99.90
10433;DHT22;5263;48.680;9.004;2022-11-20T17:28:56;5.60;99.90
10433;DHT22;5263;48.680;9.004;2022-11-20T17:31:23;5.60;99.90
10433;DHT22;5263;48.680;9.004;2022-11-20T17:33:50;5.60;99.90
10433;DHT22;5263;48.680;9.004;2022-11-20T17:36:17;5.60;99.90
10433;DHT22;5263;48.680;9.004;2022-11-20T17:38:44;5.60;99.90
10433;DHT22;5263;48.680;9.004;2022-11-20T17:41:18;5.60;99.90
10433;DHT22;5263;48.680;9.004;2022-11-20T17:43:44;5.50;99.90
10433;DHT22;5263;48.680;9.004;2022-11-20T17:46:12;5.50;99.90
10433;DHT22;5263;48.680;9.004;2022-11-20T17:48:39;5.60;99.90
10433;DHT22;5263;48.680;9.004;2022-11-20T17:51:13;5.60;99.90
10433;DHT22;5263;48.680;9.004;2022-11-20T17:53:41;5.70;99.90